Time;durP1;ratioP1;P1;durP2;ratioP2;P2;SDS_P1;SDS_P2;PMS_P1;PMS_P2;Temp;Humidity;BMP_temperature;BMP_pressure;BME280_temperature;BME280_humidity;BME280_pressure;Samples;Min_cycle;Max_cycle;Signal;HPM_P1;HPM_P2
2021/08/30 00:02:01;;;;;;;11.23;6.28;;;;;;;20.14;68.36;100254.44;5041722;28;20072;-63
2021/08/30 00:04:29;;;;;;;12.70;6.90;;;;;;;20.20;68.78;100269.22;5040308;28;20045;-62
2021/08/30 00:06:55;;;;;;;12.73;7.50;;;;;;;20.22;68.53;100264.84;5037513;28;20073;-61
2021/08/30 00:09:22;;;;;;;11.65;7.35;;;;;;;20.15;68.49;100250.44;5044996;28;20137;-62
2021/08/30 00:11:49;;;;;;;11.65;6.00;;;;;;;20.14;68.58;100240.28;5031891;28;20068;-60
2021/08/30 00:14:16;;;;;;;15.23;7.00;;;;;;;20.30;68.60;100263.06;5068375;28;20439;-62
2021/08/30 00:16:43;;;;;;;13.55;7.30;;;;;;;20.27;68.77;100260.94;5042240;28;20076;-63
2021/08/30 00:19:10;;;;;;;13.90;7.10;;;;;;;20.14;68.77;100231.78;5032533;28;20045;-64
2021/08/30 00:21:37;;;;;;;14.65;6.53;;;;;;;20.29;68.76;100252.91;5043999;28;20080;-64
2021/08/30 00:24:04;;;;;;;17.65;7.45;;;;;;;20.28;68.72;100259.78;5041222;28;20053;-62
2021/08/30 00:26:31;;;;;;;18.85;8.27;;;;;;;20.23;68.78;100245.81;5033449;28;20121;-63
2021/08/30 00:28:58;;;;;;;15.10;8.57;;;;;;;20.35;68.82;100251.50;5040799;28;20092;-64
2021/08/30 00:31:26;;;;;;;21.13;7.85;;;;;;;20.38;69.03;100259.31;5033498;28;20080;-64
2021/08/30 00:33:54;;;;;;;17.88;6.93;;;;;;;20.34;68.99;100255.50;5036738;28;20121;-63
2021/08/30 00:36:23;;;;;;;14.68;7.85;;;;;;;20.28;68.89;100248.44;5034952;28;20128;-63
2021/08/30 00:38:49;;;;;;;14.45;7.22;;;;;;;20.36;69.03;100256.00;5030929;28;20038;-63
2021/08/30 00:41:16;;;;;;;15.77;7.40;;;;;;;20.35;69.02;100257.19;5040103;28;20080;-63
2021/08/30 00:43:43;;;;;;;14.10;7.70;;;;;;;20.42;69.04;100254.59;5036379;28;20489;-62
2021/08/30 00:46:10;;;;;;;16.30;6.88;;;;;;;20.42;69.13;100248.91;5033079;28;20123;-62
2021/08/30 00:48:37;;;;;;;18.77;9.75;;;;;;;20.42;69.06;100251.75;5031674;28;20049;-62
2021/08/30 00:51:04;;;;;;;16.08;7.78;;;;;;;20.31;68.98;100233.56;5032870;28;20139;-62
2021/08/30 00:53:31;;;;;;;13.40;7.88;;;;;;;20.40;69.06;100239.09;5040552;28;20072;-62
2021/08/30 00:55:57;;;;;;;10.45;6.20;;;;;;;20.44;69.00;100240.03;5044269;28;20524;-63
2021/08/30 00:58:24;;;;;;;12.70;5.20;;;;;;;20.42;68.95;100236.75;5032052;28;20046;-62
2021/08/30 01:00:51;;;;;;;16.05;7.13;;;;;;;20.41;69.18;100235.06;5035228;28;20128;-62
2021/08/30 01:03:18;;;;;;;14.65;6.55;;;;;;;20.37;68.91;100223.59;5044580;28;20080;-62
2021/08/30 01:05:51;;;;;;;10.52;5.70;;;;;;;20.38;68.85;100207.44;5046113;28;20124;-61
2021/08/30 01:08:30;;;;;;;19.80;7.75;;;;;;;20.29;68.88;100199.88;5038953;28;20484;-61
2021/08/30 01:11:07;;;;;;;16.50;6.07;;;;;;;20.38;68.84;100208.25;5042200;28;20477;-61
2021/08/30 01:13:44;;;;;;;12.02;6.15;;;;;;;20.28;68.94;100191.72;5043495;28;20479;-63
2021/08/30 01:16:12;;;;;;;12.85;5.50;;;;;;;20.35;68.88;100200.47;5032469;28;20124;-62
2021/08/30 01:18:41;;;;;;;12.45;5.30;;;;;;;20.40;68.72;100217.22;5032697;28;20473;-62
2021/08/30 01:21:18;;;;;;;13.00;6.65;;;;;;;20.38;68.77;100213.94;5046854;28;20248;-67
2021/08/30 01:23:59;;;;;;;14.43;5.85;;;;;;;20.38;68.59;100218.78;5040668;28;20073;-64
2021/08/30 01:26:27;;;;;;;10.18;5.43;;;;;;;20.25;68.44;100187.59;5033974;28;20111;-65
2021/08/30 01:29:12;;;;;;;12.18;5.80;;;;;;;20.33;68.32;100205.66;5031655;28;20494;-64
2021/08/30 01:31:43;;;;;;;12.25;6.43;;;;;;;20.21;68.39;100192.31;5038757;28;20521;-61
2021/08/30 01:34:12;;;;;;;11.77;5.50;;;;;;;20.28;68.38;100209.56;5035871;28;20042;-61
2021/08/30 01:36:39;;;;;;;16.02;6.13;;;;;;;20.22;68.36;100193.13;5034734;28;20072;-66
2021/08/30 01:39:06;;;;;;;14.52;7.25;;;;;;;20.26;68.43;100205.41;5030677;28;20057;-63
2021/08/30 01:41:36;;;;;;;11.70;5.68;;;;;;;20.21;68.37;100200.81;5036724;28;20128;-64
2021/08/30 01:44:06;;;;;;;12.95;5.10;;;;;;;20.19;68.44;100194.66;5035465;28;20128;-64
2021/08/30 01:46:34;;;;;;;;;;;;;;;20.09;68.30;100201.63;5037182;28;20124;-61
2021/08/30 01:49:02;;;;;;;14.35;5.22;;;;;;;20.06;68.33;100190.16;5031542;28;20288;-60
2021/08/30 01:51:31;;;;;;;9.65;5.47;;;;;;;20.09;68.28;100193.13;5034867;28;20219;-61
2021/08/30 01:53:58;;;;;;;13.85;6.65;;;;;;;20.03;68.66;100186.06;5040108;28;20073;-61
2021/08/30 01:56:28;;;;;;;13.63;6.05;;;;;;;20.02;68.61;100183.56;5039121;28;20533;-61
2021/08/30 02:01:41;;;;;;;16.10;6.20;;;;;;;20.04;68.44;100195.38;5030380;28;20661;-61
2021/08/30 02:04:08;;;;;;;11.82;6.38;;;;;;;20.01;68.52;100191.25;5038199;28;20053;-59
2021/08/30 02:06:35;;;;;;;11.75;5.88;;;;;;;19.81;68.47;100155.31;5042020;28;20065;-58
2021/08/30 02:09:04;;;;;;;18.17;6.55;;;;;;;19.99;68.76;100179.41;5048163;28;20141;-58
2021/08/30 02:11:35;;;;;;;14.35;5.57;;;;;;;20.01;68.78;100181.91;5039641;28;20525;-59
2021/08/30 02:14:04;;;;;;;12.20;5.63;;;;;;;19.97;68.84;100176.13;5049499;28;20123;-58
2021/08/30 02:16:31;;;;;;;13.18;6.63;;;;;;;20.02;68.93;100180.72;5045830;28;20080;-58
2021/08/30 02:19:01;;;;;;;13.50;6.43;;;;;;;19.96;69.06;100171.63;5051385;28;20140;-60
2021/08/30 02:21:39;;;;;;;14.48;6.13;;;;;;;19.92;68.80;100170.69;5038118;28;20076;-60
2021/08/30 02:24:48;;;;;;;15.27;6.18;;;;;;;19.89;68.98;100166.53;5043543;28;20147;-60
2021/08/30 02:27:21;;;;;;;13.23;7.15;;;;;;;19.87;69.42;100162.41;5032646;28;20118;-60
2021/08/30 02:29:57;;;;;;;18.98;5.72;;;;;;;19.91;69.37;100169.03;5041131;28;20457;-60
2021/08/30 02:32:25;;;;;;;15.23;6.20;;;;;;;19.90;69.64;100175.88;5034330;28;20128;-61
2021/08/30 02:34:56;;;;;;;14.77;6.05;;;;;;;19.84;69.80;100168.78;5043733;28;20137;-61
2021/08/30 02:37:29;;;;;;;11.43;5.35;;;;;;;19.73;69.61;100156.28;5043977;28;20124;-60
2021/08/30 02:39:58;;;;;;;10.98;6.80;;;;;;;19.88;69.61;100172.56;5034172;28;20041;-60
2021/08/30 02:42:31;;;;;;;13.43;6.22;;;;;;;19.85;69.42;100171.25;5039548;28;20041;-60
2021/08/30 02:44:58;;;;;;;18.03;6.53;;;;;;;19.89;69.58;100174.22;5047621;28;20083;-59
2021/08/30 02:47:26;;;;;;;14.38;6.82;;;;;;;19.86;69.35;100164.44;5034447;28;20382;-59
2021/08/30 02:49:54;;;;;;;12.63;5.97;;;;;;;19.80;69.30;100153.69;5035970;28;20128;-60
2021/08/30 02:52:24;;;;;;;11.05;5.47;;;;;;;19.73;69.20;100147.78;5036444;28;20089;-61
2021/08/30 02:54:52;;;;;;;10.98;5.72;;;;;;;19.78;69.30;100168.19;5035727;28;20521;-63
2021/08/30 02:57:20;;;;;;;13.15;6.03;;;;;;;19.78;69.19;100162.50;5043961;28;20128;-65
2021/08/30 02:59:50;;;;;;;13.60;6.35;;;;;;;19.79;69.47;100163.34;5033525;28;20124;-67
2021/08/30 03:02:21;;;;;;;15.85;6.60;;;;;;;19.77;69.42;100160.88;5036529;28;20140;-61
2021/08/30 03:04:51;;;;;;;13.15;5.93;;;;;;;19.82;69.32;100168.31;5043427;28;20045;-61
2021/08/30 03:07:18;;;;;;;8.98;5.90;;;;;;;19.61;68.96;100142.88;5041791;28;20057;-61
2021/08/30 03:09:45;;;;;;;12.45;5.50;;;;;;;19.79;69.27;100163.34;5036803;28;20123;-61
2021/08/30 03:12:15;;;;;;;12.73;5.68;;;;;;;19.63;69.31;100138.53;5040892;28;20501;-60
2021/08/30 03:14:44;;;;;;;8.55;5.47;;;;;;;19.57;69.40;100139.91;5035348;28;20127;-62
2021/08/30 03:17:13;;;;;;;11.95;5.50;;;;;;;19.76;69.05;100158.38;5038343;28;20125;-62
2021/08/30 03:19:43;;;;;;;11.77;5.82;;;;;;;19.73;69.08;100154.25;5043494;28;20103;-61
2021/08/30 03:22:11;;;;;;;;;;;;;;;19.69;69.02;100160.97;5035591;28;20140;-61
2021/08/30 03:24:41;;;;;;;12.27;5.38;;;;;;;19.62;69.20;100145.38;5048359;28;19925;-59
2021/08/30 03:27:08;;;;;;;;;;;;;;;19.63;69.03;100163.22;5037639;28;20124;-60
2021/08/30 03:29:38;;;;;;;15.95;6.97;;;;;;;19.69;68.95;100158.13;5035690;28;20007;-60
2021/08/30 03:32:08;;;;;;;12.80;6.65;;;;;;;19.68;68.79;100157.31;5043582;28;20194;-60
2021/08/30 03:34:36;;;;;;;14.65;7.00;;;;;;;19.69;68.86;100158.13;5039410;28;20048;-60
2021/08/30 03:37:04;;;;;;;15.95;7.15;;;;;;;19.70;69.05;100154.13;5033485;28;20916;-60
2021/08/30 03:39:31;;;;;;;9.75;5.85;;;;;;;19.72;69.22;100163.91;5042081;28;20548;-59
2021/08/30 03:41:59;;;;;;;12.93;6.32;;;;;;;19.74;69.15;100160.75;5043400;28;20076;-59
2021/08/30 03:44:26;;;;;;;14.07;7.18;;;;;;;19.72;69.27;100157.44;5041871;28;20072;-61
2021/08/30 03:46:54;;;;;;;9.55;5.50;;;;;;;19.78;69.36;100156.84;5047715;28;20080;-60
2021/08/30 03:49:23;;;;;;;8.60;5.10;;;;;;;19.76;69.59;100152.72;5036356;28;20037;-63
2021/08/30 03:51:52;;;;;;;10.38;5.57;;;;;;;19.74;69.12;100141.75;5043264;28;20045;-63
2021/08/30 03:54:19;;;;;;;11.63;6.35;;;;;;;19.87;69.56;100159.59;5041723;28;20076;-63
2021/08/30 03:56:47;;;;;;;17.25;6.90;;;;;;;19.90;69.29;100147.56;5038633;28;20051;-63
2021/08/30 03:59:17;;;;;;;13.57;5.32;;;;;;;19.91;69.25;100149.19;5037426;28;20128;-63
2021/08/30 04:01:45;;;;;;;13.48;6.05;;;;;;;19.93;69.21;100151.66;5032275;28;20506;-63
2021/08/30 04:04:19;;;;;;;15.70;7.28;;;;;;;19.86;69.27;100140.91;5041553;28;20044;-63
2021/08/30 04:06:46;;;;;;;12.70;6.07;;;;;;;19.94;69.25;100154.16;5044605;28;20150;-61
2021/08/30 04:09:16;;;;;;;9.80;6.13;;;;;;;19.89;69.21;100145.88;5042821;28;20101;-65
2021/08/30 04:11:44;;;;;;;11.40;5.65;;;;;;;19.98;69.02;100159.94;5032461;28;20576;-64
2021/08/30 04:14:12;;;;;;;10.35;5.95;;;;;;;19.93;69.09;100144.00;5040566;28;20080;-62
2021/08/30 04:16:40;;;;;;;12.30;6.20;;;;;;;19.86;69.18;100129.56;5036881;28;20041;-61
2021/08/30 04:19:08;;;;;;;15.93;7.25;;;;;;;20.02;69.24;100155.22;5047521;28;20083;-61
2021/08/30 04:21:35;;;;;;;9.38;5.45;;;;;;;20.00;69.36;100155.59;5055196;28;20467;-61
2021/08/30 04:24:01;;;;;;;9.88;6.35;;;;;;;20.03;69.45;100160.53;5050040;28;20449;-61
2021/08/30 04:26:28;;;;;;;11.57;6.30;;;;;;;20.02;69.24;100150.38;5043053;28;20072;-61
2021/08/30 04:28:55;;;;;;;11.77;6.22;;;;;;;20.06;69.20;100156.97;5033796;28;20084;-60
2021/08/30 04:31:22;;;;;;;11.43;6.30;;;;;;;20.04;69.49;100145.19;5038676;28;20055;-60
2021/08/30 04:33:49;;;;;;;12.95;6.28;;;;;;;20.11;69.29;100155.94;5040178;28;20115;-60
2021/08/30 04:36:16;;;;;;;12.32;6.05;;;;;;;20.15;69.30;100158.88;5042062;28;20135;-61
2021/08/30 04:38:42;;;;;;;10.57;5.53;;;;;;;19.88;69.19;100121.56;5044922;28;20136;-60
2021/08/30 04:41:12;;;;;;;11.82;6.75;;;;;;;20.16;69.37;100144.34;5035437;28;20133;-61
2021/08/30 04:43:39;;;;;;;15.30;6.00;;;;;;;20.18;69.44;100147.66;5035239;28;20541;-61
2021/08/30 04:46:07;;;;;;;10.55;5.60;;;;;;;20.17;69.33;100148.00;5033233;28;20128;-61
2021/08/30 04:48:35;;;;;;;13.00;5.55;;;;;;;20.21;69.33;100152.63;5034196;28;20083;-62
2021/08/30 04:51:02;;;;;;;10.45;5.53;;;;;;;20.24;68.78;100162.41;5044620;28;20175;-62
2021/08/30 04:53:29;;;;;;;10.63;5.65;;;;;;;20.26;69.24;100154.38;5037079;28;20053;-62
2021/08/30 04:55:56;;;;;;;9.05;5.35;;;;;;;20.28;68.97;100152.03;5049748;28;20136;-64
2021/08/30 04:58:22;;;;;;;9.52;5.00;;;;;;;20.18;68.99;100135.50;5042046;28;20128;-65
2021/08/30 05:00:50;;;;;;;9.40;4.95;;;;;;;20.30;68.89;100150.47;5042983;28;20132;-64
2021/08/30 05:03:17;;;;;;;14.35;4.95;;;;;;;20.24;68.76;100140.56;5044978;28;20059;-64
2021/08/30 05:05:45;;;;;;;11.70;5.68;;;;;;;20.20;68.67;100138.78;5041964;28;20056;-65
2021/08/30 05:08:11;;;;;;;9.88;4.85;;;;;;;19.98;68.70;100101.25;5035338;28;20466;-64
2021/08/30 05:10:38;;;;;;;14.20;5.28;;;;;;;20.28;68.77;100138.69;5049103;28;20040;-64
2021/08/30 05:13:05;;;;;;;8.45;4.55;;;;;;;20.28;68.67;100146.34;5043278;28;20065;-65
2021/08/30 05:15:32;;;;;;;13.52;5.35;;;;;;;20.27;69.00;100147.53;5043624;28;20125;-63
2021/08/30 05:17:59;;;;;;;10.13;5.28;;;;;;;20.24;68.93;100149.09;5036836;28;20055;-63
2021/08/30 05:20:26;;;;;;;12.73;4.72;;;;;;;20.19;69.08;100134.31;5037025;28;20041;-63
2021/08/30 05:22:52;;;;;;;11.07;4.53;;;;;;;20.26;68.95;100154.38;5034693;28;20124;-60
2021/08/30 05:25:19;;;;;;;11.63;5.35;;;;;;;20.18;68.96;100152.50;5050660;28;20190;-60
2021/08/30 05:27:48;;;;;;;10.93;5.38;;;;;;;20.22;69.27;100154.25;5038392;28;20065;-60
2021/08/30 05:30:15;;;;;;;10.82;5.00;;;;;;;20.22;69.19;100153.44;5065157;28;20073;-61
2021/08/30 05:32:42;;;;;;;14.57;4.93;;;;;;;20.22;69.21;100159.13;5043184;28;20111;-63
2021/08/30 05:35:09;;;;;;;10.60;4.60;;;;;;;20.16;69.26;100152.84;5035179;28;20523;-63
2021/08/30 05:37:36;;;;;;;8.35;4.43;;;;;;;19.97;69.44;100113.78;5033068;28;20047;-60
2021/08/30 05:40:04;;;;;;;10.35;4.40;;;;;;;20.09;69.06;100127.94;5038295;28;20080;-59
2021/08/30 05:42:31;;;;;;;8.43;4.45;;;;;;;20.21;69.14;100151.81;5041173;28;20076;-61
2021/08/30 05:44:58;;;;;;;12.10;4.85;;;;;;;20.22;69.02;100156.28;5042670;28;20041;-63
2021/08/30 05:47:25;;;;;;;22.70;6.22;;;;;;;20.21;69.13;100160.31;5034531;28;20055;-65
2021/08/30 05:49:52;;;;;;;8.00;5.60;;;;;;;20.20;69.00;100158.63;5037688;28;20136;-61
2021/08/30 05:52:19;;;;;;;15.18;6.50;;;;;;;20.22;68.98;100170.47;5038321;28;20144;-61
2021/08/30 05:54:46;;;;;;;10.48;5.28;;;;;;;20.19;69.08;100176.84;5040378;28;20516;-56
2021/08/30 05:57:13;;;;;;;10.95;5.47;;;;;;;20.11;69.21;100173.75;5039295;28;20045;-60
2021/08/30 05:59:40;;;;;;;11.30;6.07;;;;;;;20.12;68.86;100169.75;5033592;28;20489;-62
2021/08/30 06:02:07;;;;;;;9.77;5.30;;;;;;;20.11;68.90;100181.44;5035591;28;20076;-62
2021/08/30 06:04:34;;;;;;;14.32;6.30;;;;;;;20.08;68.62;100173.66;5033089;28;20041;-60
2021/08/30 06:07:01;;;;;;;15.93;6.63;;;;;;;20.04;68.96;100176.38;5035996;28;20473;-62
2021/08/30 06:09:29;;;;;;;17.27;6.93;;;;;;;20.07;68.91;100192.66;5042645;28;20037;-64
2021/08/30 06:11:56;;;;;;;10.60;5.57;;;;;;;20.04;69.05;100184.88;5033365;28;20080;-64
2021/08/30 06:14:23;;;;;;;11.10;5.97;;;;;;;20.00;69.10;100189.59;5033901;28;20772;-64
2021/08/30 06:16:50;;;;;;;11.15;5.35;;;;;;;20.07;68.95;100195.50;5033833;28;20128;-64
2021/08/30 06:19:17;;;;;;;9.93;4.85;;;;;;;20.10;69.11;100200.47;5035211;28;20135;-64
2021/08/30 06:21:43;;;;;;;9.40;4.93;;;;;;;20.11;69.17;100198.47;5034314;28;20069;-64
2021/08/30 06:24:10;;;;;;;10.13;5.43;;;;;;;20.02;69.14;100184.38;5036788;28;20186;-64
2021/08/30 06:26:37;;;;;;;8.75;5.85;;;;;;;20.06;69.16;100184.50;5035276;28;20055;-64
2021/08/30 06:29:05;;;;;;;15.68;5.22;;;;;;;20.10;69.07;100186.28;5038112;28;20064;-64
2021/08/30 06:31:32;;;;;;;11.50;5.53;;;;;;;20.10;68.97;100186.28;5034130;28;20069;-64
2021/08/30 06:33:59;;;;;;;9.00;5.15;;;;;;;20.15;69.33;100205.06;5040937;28;20046;-64
2021/08/30 06:36:26;;;;;;;10.40;5.28;;;;;;;20.21;69.20;100209.31;5037293;28;20137;-64
2021/08/30 06:38:53;;;;;;;10.13;5.22;;;;;;;20.19;69.50;100199.50;5038717;28;20445;-64
2021/08/30 06:41:20;;;;;;;7.88;4.53;;;;;;;20.27;69.55;100212.72;5034031;28;20144;-64
2021/08/30 06:43:46;;;;;;;7.72;4.88;;;;;;;20.24;69.21;100202.94;5034494;28;20046;-64
2021/08/30 06:46:13;;;;;;;8.07;4.50;;;;;;;20.36;69.39;100213.44;5038919;28;20167;-63
2021/08/30 06:48:40;;;;;;;14.10;6.28;;;;;;;20.30;69.20;100200.69;5034124;28;20046;-62
2021/08/30 06:51:07;;;;;;;16.48;8.25;;;;;;;20.47;68.96;100225.97;5036246;28;20141;-66
2021/08/30 06:53:34;;;;;;;11.27;6.00;;;;;;;20.49;69.29;100219.97;5035699;28;20136;-62
2021/08/30 06:56:01;;;;;;;11.73;6.18;;;;;;;20.56;69.33;100221.03;5040599;28;20080;-66
2021/08/30 06:58:27;;;;;;;14.90;7.85;;;;;;;20.59;68.99;100222.34;5040685;28;20069;-63
2021/08/30 07:00:54;;;;;;;14.43;6.47;;;;;;;20.66;68.62;100224.59;5039045;28;20533;-61
2021/08/30 07:03:21;;;;;;;14.18;6.35;;;;;;;20.66;68.63;100213.22;5044884;28;20059;-62
2021/08/30 07:05:48;;;;;;;14.18;6.53;;;;;;;20.72;68.55;100214.66;5042831;28;20132;-65
2021/08/30 07:08:15;;;;;;;14.75;6.78;;;;;;;20.74;68.46;100217.94;5032298;28;20540;-66
2021/08/30 07:10:42;;;;;;;10.38;5.38;;;;;;;20.80;68.16;100219.34;5035603;28;20080;-66
2021/08/30 07:13:09;;;;;;;12.25;6.43;;;;;;;20.99;68.04;100233.75;5030436;28;20584;-66
2021/08/30 07:15:36;;;;;;;10.90;6.63;;;;;;;21.11;67.82;100240.56;5032398;28;21100;-65
2021/08/30 07:18:03;;;;;;;13.27;6.63;;;;;;;21.00;67.78;100214.69;5035390;28;20551;-64
2021/08/30 07:20:30;;;;;;;13.77;6.80;;;;;;;21.05;67.55;100226.59;5040041;28;20097;-62
2021/08/30 07:22:56;;;;;;;20.10;7.38;;;;;;;21.09;67.30;100237.25;5033507;28;20099;-64
2021/08/30 07:25:24;;;;;;;17.63;8.43;;;;;;;21.01;67.20;100224.84;5041331;28;20078;-65
2021/08/30 07:27:51;;;;;;;15.48;6.88;;;;;;;20.99;67.17;100242.25;5033123;28;20049;-64
2021/08/30 07:30:17;;;;;;;15.25;6.75;;;;;;;21.05;67.22;100237.97;5037285;28;20123;-64
2021/08/30 07:32:44;;;;;;;12.57;7.20;;;;;;;21.43;66.76;100228.16;5034904;28;20042;-65
2021/08/30 07:35:13;;;;;;;11.88;6.13;;;;;;;21.82;65.82;100236.97;5040276;28;20140;-64
2021/08/30 07:37:40;;;;;;;13.23;6.57;;;;;;;22.14;65.72;100242.69;5037510;28;20081;-65
2021/08/30 07:40:07;;;;;;;12.60;6.07;;;;;;;22.42;64.85;100236.91;5045255;28;20052;-65
2021/08/30 07:42:34;;;;;;;14.07;6.00;;;;;;;22.87;64.07;100236.38;5039715;28;20124;-65
2021/08/30 07:45:02;;;;;;;11.43;5.35;;;;;;;23.23;63.27;100231.50;5043432;28;20103;-65
2021/08/30 07:47:29;;;;;;;12.77;5.95;;;;;;;23.58;62.57;100230.59;5035661;28;20128;-66
2021/08/30 07:49:56;;;;;;;10.43;5.28;;;;;;;23.91;61.66;100229.22;5034437;28;20121;-65
2021/08/30 07:52:23;;;;;;;9.55;4.93;;;;;;;24.00;60.63;100190.69;5033708;28;20059;-65
2021/08/30 07:54:50;;;;;;;12.57;5.88;;;;;;;24.43;60.13;100233.41;5038288;28;20133;-66
2021/08/30 07:57:17;;;;;;;8.07;4.57;;;;;;;24.78;60.03;100241.72;5036228;28;20069;-66
2021/08/30 07:59:44;;;;;;;8.82;5.30;;;;;;;25.07;59.17;100231.53;5029788;28;20129;-66
2021/08/30 08:02:11;;;;;;;9.85;5.68;;;;;;;25.64;57.89;100242.91;5034701;28;20081;-66
2021/08/30 08:04:38;;;;;;;8.55;5.32;;;;;;;25.92;57.26;100231.00;5032394;28;20042;-66
2021/08/30 08:07:05;;;;;;;7.47;4.53;;;;;;;26.24;56.45;100223.53;5037714;28;20133;-65
2021/08/30 08:09:31;;;;;;;7.13;4.68;;;;;;;26.76;55.51;100237.06;5043598;28;20119;-69
2021/08/30 08:11:58;;;;;;;10.38;5.05;;;;;;;27.09;54.48;100236.03;5036988;28;20088;-68
2021/08/30 08:14:25;;;;;;;9.93;4.43;;;;;;;27.22;53.53;100223.06;5033369;28;20044;-63
2021/08/30 08:16:52;;;;;;;9.35;4.68;;;;;;;27.61;52.79;100228.94;5041888;28;20064;-63
2021/08/30 08:19:19;;;;;;;8.77;5.10;;;;;;;27.87;52.28;100215.50;5038724;28;20079;-63
2021/08/30 08:21:47;;;;;;;9.27;5.22;;;;;;;28.24;51.47;100234.41;5034031;28;20140;-62
2021/08/30 08:24:14;;;;;;;7.22;4.78;;;;;;;28.02;50.94;100185.59;5035978;28;20065;-64
2021/08/30 08:26:41;;;;;;;7.50;5.05;;;;;;;28.54;50.22;100226.22;5041677;28;20135;-63
2021/08/30 08:29:08;;;;;;;10.77;4.50;;;;;;;28.99;49.34;100241.00;5044778;28;20552;-64
2021/08/30 08:31:34;;;;;;;8.60;4.10;;;;;;;28.98;49.04;100224.13;5045004;28;20124;-61
2021/08/30 08:34:01;;;;;;;6.90;4.10;;;;;;;28.84;48.71;100224.97;5047679;28;20077;-68
2021/08/30 08:36:28;;;;;;;8.15;3.70;;;;;;;28.57;49.19;100242.66;5047311;28;20064;-62
2021/08/30 08:38:55;;;;;;;12.60;4.82;;;;;;;28.25;49.21;100238.94;5043412;28;20574;-61
2021/08/30 08:41:22;;;;;;;7.22;4.35;;;;;;;28.20;49.35;100236.47;5045678;28;20084;-62
2021/08/30 08:43:54;;;;;;;7.75;4.55;;;;;;;28.88;48.65;100222.91;5037310;28;20132;-60
2021/08/30 08:46:23;;;;;;;7.65;4.18;;;;;;;29.40;47.58;100228.13;5047057;28;20556;-61
2021/08/30 08:48:50;;;;;;;6.80;4.07;;;;;;;29.94;46.49;100234.44;5047081;28;20073;-71
2021/08/30 08:51:17;;;;;;;10.05;5.20;;;;;;;30.47;45.48;100226.69;5040338;28;20103;-69
2021/08/30 08:53:44;;;;;;;4.68;3.20;;;;;;;30.83;44.78;100228.00;5038110;28;20135;-65
2021/08/30 08:56:15;;;;;;;9.02;5.00;;;;;;;30.90;44.98;100227.94;5034469;28;20092;-66
2021/08/30 08:58:42;;;;;;;12.30;5.07;;;;;;;31.25;43.89;100225.06;5034520;28;20037;-63
2021/08/30 09:01:13;;;;;;;8.52;3.58;;;;;;;31.46;43.45;100224.88;5043166;28;20128;-65
2021/08/30 09:03:48;;;;;;;13.50;5.03;;;;;;;31.58;43.12;100214.81;5033881;28;20513;-62
2021/08/30 09:06:43;;;;;;;8.20;4.65;;;;;;;31.98;42.49;100232.44;5045948;28;20476;-73
2021/08/30 09:09:14;;;;;;;4.88;3.05;;;;;;;32.49;41.59;100221.72;5043764;28;20068;-67
2021/08/30 09:11:44;;;;;;;7.82;3.35;;;;;;;32.79;40.61;100230.28;5038816;28;20424;-73
2021/08/30 09:14:16;;;;;;;5.80;3.10;;;;;;;32.56;40.65;100221.59;5037495;28;20140;-66
2021/08/30 09:16:44;;;;;;;5.97;2.90;;;;;;;31.94;41.39;100243.22;5043222;28;20043;-65
2021/08/30 09:19:15;;;;;;;8.25;3.38;;;;;;;31.45;42.27;100231.88;5038289;28;20541;-65
2021/08/30 09:21:51;;;;;;;11.15;2.90;;;;;;;30.71;43.29;100230.59;5041456;28;20071;-65
2021/08/30 09:24:20;;;;;;;6.45;4.05;;;;;;;30.35;43.32;100246.13;5042608;28;20041;-65
2021/08/30 09:26:48;;;;;;;5.97;3.72;;;;;;;29.69;43.98;100252.69;5036235;28;20054;-64
2021/08/30 09:29:18;;;;;;;7.72;4.75;;;;;;;29.09;44.49;100241.38;5035442;28;20068;-64
2021/08/30 09:32:06;;;;;;;8.13;4.13;;;;;;;28.44;45.44;100229.94;5047454;28;20127;-64
2021/08/30 09:34:36;;;;;;;6.35;3.90;;;;;;;28.23;45.69;100255.75;5046331;28;20499;-65
2021/08/30 09:37:12;;;;;;;6.72;3.63;;;;;;;28.35;45.51;100252.47;5030955;28;20486;-65
2021/08/30 09:39:46;;;;;;;10.02;3.97;;;;;;;29.18;44.82;100248.34;5035443;28;20533;-65
2021/08/30 09:42:13;;;;;;;10.13;4.15;;;;;;;30.01;43.22;100256.63;5049196;28;20060;-68
2021/08/30 09:44:40;;;;;;;6.50;3.90;;;;;;;30.86;42.08;100267.50;5031934;28;20045;-63
2021/08/30 09:47:12;;;;;;;9.18;4.05;;;;;;;31.54;41.28;100255.25;5033782;28;20132;-62
2021/08/30 09:49:41;;;;;;;6.18;4.07;;;;;;;32.24;40.09;100251.00;5036859;28;20509;-59
2021/08/30 09:52:08;;;;;;;6.32;3.50;;;;;;;32.91;39.23;100256.91;5040760;28;20140;-58
2021/08/30 09:54:35;;;;;;;8.43;3.42;;;;;;;33.08;38.85;100258.69;5035135;28;20136;-62
2021/08/30 09:57:02;;;;;;;4.53;3.50;;;;;;;33.37;37.39;100243.63;5038372;28;20146;-59
2021/08/30 09:59:31;;;;;;;8.60;3.03;;;;;;;33.80;37.34;100263.03;5040078;28;20144;-67
2021/08/30 10:02:00;;;;;;;7.47;3.13;;;;;;;34.16;36.90;100263.88;5035647;28;20520;-65
2021/08/30 10:04:29;;;;;;;5.32;3.22;;;;;;;34.09;36.68;100240.88;5043431;28;20041;-65
2021/08/30 10:06:56;;;;;;;8.87;2.63;;;;;;;33.61;37.28;100259.72;5046732;28;20497;-69
2021/08/30 10:09:23;;;;;;;5.78;2.85;;;;;;;32.87;38.21;100264.84;5047442;28;20103;-68
2021/08/30 10:11:52;;;;;;;4.38;2.65;;;;;;;32.28;38.55;100272.81;5037317;28;20041;-68
2021/08/30 10:14:28;;;;;;;4.63;2.70;;;;;;;31.72;38.76;100254.19;5035560;28;20449;-68
2021/08/30 10:17:02;;;;;;;4.10;2.75;;;;;;;31.24;39.41;100264.66;5041459;28;20045;-67
2021/08/30 10:19:34;;;;;;;7.45;4.13;;;;;;;31.70;39.37;100262.50;5036959;28;20045;-66
2021/08/30 10:22:14;;;;;;;4.68;2.67;;;;;;;32.27;39.11;100262.50;5042048;28;20128;-66
2021/08/30 10:24:41;;;;;;;7.28;2.97;;;;;;;32.90;37.69;100266.84;5035425;28;20128;-66
2021/08/30 10:27:09;;;;;;;8.60;3.38;;;;;;;33.45;37.25;100254.63;5037575;28;20132;-66
2021/08/30 10:29:39;;;;;;;5.97;2.92;;;;;;;33.98;36.75;100254.75;5034426;28;20135;-65
2021/08/30 10:32:18;;;;;;;5.03;2.75;;;;;;;34.40;36.13;100249.25;5034551;28;20564;-66
2021/08/30 10:34:45;;;;;;;7.10;2.92;;;;;;;34.54;35.84;100254.72;5043085;28;20141;-67
2021/08/30 10:37:20;;;;;;;7.13;2.42;;;;;;;33.65;36.45;100233.59;5038107;28;20501;-66
2021/08/30 10:39:54;;;;;;;5.38;3.10;;;;;;;32.94;36.75;100250.25;5035940;28;20080;-66
2021/08/30 10:42:21;;;;;;;4.57;3.10;;;;;;;32.20;37.59;100233.72;5042074;28;20120;-67
2021/08/30 10:44:54;;;;;;;3.83;2.25;;;;;;;31.95;37.95;100241.97;5035553;28;20072;-67
2021/08/30 10:47:25;;;;;;;5.07;2.65;;;;;;;31.94;37.71;100243.22;5045259;28;20099;-67
2021/08/30 10:49:53;;;;;;;9.60;3.63;;;;;;;32.33;37.55;100226.06;5030547;28;21670;-68
2021/08/30 10:52:20;;;;;;;6.13;2.72;;;;;;;33.03;36.49;100227.38;5033749;28;20077;-66
2021/08/30 10:54:56;;;;;;;6.28;3.10;;;;;;;33.60;36.45;100232.00;5037443;28;20140;-67
2021/08/30 10:57:33;;;;;;;3.83;2.35;;;;;;;34.14;35.95;100237.44;5030730;28;20156;-67
2021/08/30 11:00:00;;;;;;;4.78;2.42;;;;;;;35.02;34.43;100238.56;5032216;28;20549;-67
2021/08/30 11:02:49;;;;;;;3.58;2.17;;;;;;;36.40;33.43;100225.25;5034495;28;20071;-67
2021/08/30 11:05:25;;;;;;;3.90;3.03;;;;;;;37.58;31.18;100229.84;5038785;28;20049;-67
2021/08/30 11:07:53;;;;;;;7.88;2.72;;;;;;;38.24;30.16;100215.13;5040297;28;20660;-67
2021/08/30 11:10:25;;;;;;;5.72;2.65;;;;;;;38.57;29.97;100227.09;5045647;28;20140;-67
2021/08/30 11:12:56;;;;;;;4.30;2.53;;;;;;;38.37;30.21;100213.75;5042079;28;20099;-68
2021/08/30 11:15:31;;;;;;;4.00;2.50;;;;;;;38.20;30.51;100208.66;5038666;28;20132;-67
2021/08/30 11:18:04;;;;;;;4.88;2.38;;;;;;;38.28;30.26;100213.69;5035436;28;20302;-68
2021/08/30 11:20:31;;;;;;;6.43;2.65;;;;;;;38.04;30.37;100224.28;5040230;28;20438;-68
2021/08/30 11:22:58;;;;;;;6.18;2.38;;;;;;;37.67;30.09;100200.72;5039820;28;20124;-68
2021/08/30 11:25:34;;;;;;;3.42;2.20;;;;;;;37.83;30.29;100220.91;5051017;28;20041;-67
2021/08/30 11:28:12;;;;;;;4.63;2.53;;;;;;;37.91;30.39;100213.53;5051206;28;20076;-66
2021/08/30 11:30:39;;;;;;;4.40;1.90;;;;;;;38.10;30.17;100234.03;5045913;28;20053;-67
2021/08/30 11:33:06;;;;;;;4.20;2.38;;;;;;;37.55;29.69;100219.13;5038156;28;20073;-67